Time;durP1;ratioP1;P1;durP2;ratioP2;P2;SDS_P1;SDS_P2;PMS_P1;PMS_P2;Temp;Humidity;BMP_temperature;BMP_pressure;BME280_temperature;BME280_humidity;BME280_pressure;Samples;Min_cycle;Max_cycle;Signal;HPM_P1;HPM_P2
2023/06/24 00:02:09;;;;;;;17.02;13.48;;;14.00;99.90;;;18.07;100.00;101617.28;5006515;28;20037;-85
2023/06/24 00:04:35;;;;;;;18.00;14.00;;;13.90;99.90;;;17.95;100.00;101624.72;5002851;28;20042;-85
2023/06/24 00:07:01;;;;;;;18.10;13.73;;;13.90;99.90;;;18.08;100.00;101618.13;5002778;28;20085;-86
2023/06/24 00:09:28;;;;;;;19.27;14.32;;;13.80;99.90;;;18.04;100.00;101622.47;5011704;28;20026;-85
2023/06/24 00:11:58;;;;;;;19.92;13.13;;;13.80;99.90;;;17.92;100.00;101626.03;5013494;28;20034;-86
2023/06/24 00:14:26;;;;;;;18.23;13.20;;;13.70;99.90;;;17.89;100.00;101621.00;5012252;28;20121;-85
2023/06/24 00:16:56;;;;;;;19.40;13.25;;;13.60;99.90;;;17.76;100.00;101626.75;5006652;28;20030;-85
2023/06/24 00:19:25;;;;;;;19.23;13.70;;;13.50;99.90;;;17.54;100.00;101628.22;5000311;28;20145;-85
2023/06/24 00:21:52;;;;;;;19.30;13.93;;;13.40;99.90;;;17.48;100.00;101622.81;5011369;28;20406;-85
2023/06/24 00:24:25;;;;;;;18.07;13.63;;;13.30;99.90;;;17.42;100.00;101623.78;5007786;28;20033;-85
2023/06/24 00:26:53;;;;;;;18.67;13.52;;;13.20;99.90;;;17.38;100.00;101621.50;5005363;28;20022;-85
2023/06/24 00:29:18;;;;;;;21.33;14.38;;;13.10;99.90;;;17.40;100.00;101632.31;5009884;28;20096;-85
2023/06/24 00:31:44;;;;;;;25.30;16.58;;;13.10;99.90;;;17.68;100.00;101619.72;5003842;28;20109;-85
2023/06/24 00:34:10;;;;;;;20.75;15.40;;;13.10;99.90;;;17.58;100.00;101616.69;4999072;28;20034;-86
2023/06/24 00:36:36;;;;;;;22.38;15.30;;;13.10;99.90;;;17.63;100.00;101622.34;5000250;28;20107;-85
2023/06/24 00:39:03;;;;;;;20.60;15.05;;;13.00;99.90;;;17.65;100.00;101618.25;5000563;28;20052;-85
2023/06/24 00:41:34;;;;;;;21.27;15.63;;;12.90;99.90;;;17.62;100.00;101624.28;5009314;28;20038;-86
2023/06/24 00:44:01;;;;;;;22.25;16.05;;;13.00;99.90;;;17.65;100.00;101618.25;5002977;28;20546;-86
2023/06/24 00:46:28;;;;;;;20.95;15.02;;;12.90;99.90;;;17.51;100.00;101625.94;5012452;28;20120;-86
2023/06/24 00:48:58;;;;;;;24.75;16.27;;;12.90;99.90;;;17.40;100.00;101627.63;5013647;28;20030;-85
2023/06/24 00:51:30;;;;;;;21.88;14.95;;;12.90;99.90;;;17.26;100.00;101637.22;5009021;28;20040;-85
2023/06/24 00:53:59;;;;;;;24.38;15.63;;;12.80;99.90;;;17.33;100.00;101643.44;5006486;28;20058;-86
2023/06/24 00:56:30;;;;;;;20.35;13.90;;;12.70;99.90;;;17.19;100.00;101630.94;5014047;28;20029;-86
2023/06/24 00:59:01;;;;;;;18.63;13.52;;;12.60;99.90;;;17.21;100.00;101642.59;5014666;28;20096;-86
2023/06/24 01:01:33;;;;;;;20.25;14.57;;;12.50;99.90;;;17.06;100.00;101632.84;4997041;28;20375;-86
2023/06/24 01:04:00;;;;;;;19.92;13.45;;;12.40;99.90;;;16.91;100.00;101627.75;5006764;28;20018;-86
2023/06/24 01:06:29;;;;;;;19.30;14.30;;;12.30;99.90;;;16.85;100.00;101641.63;5028725;28;20037;-87
2023/06/24 01:09:00;;;;;;;21.98;14.63;;;12.30;99.90;;;16.80;100.00;101634.06;5011052;28;20411;-87
2023/06/24 01:11:28;;;;;;;22.50;15.15;;;12.20;99.90;;;16.72;100.00;101637.16;5010108;28;20065;-86
2023/06/24 01:13:54;;;;;;;19.42;14.48;;;12.20;99.90;;;16.82;100.00;101624.50;5013955;28;20508;-86
2023/06/24 01:17:06;;;;;;;20.50;14.57;;;12.30;99.90;;;16.91;100.00;101635.19;5012681;28;20156;-86
2023/06/24 01:20:13;;;;;;;23.02;14.68;;;12.30;99.90;;;16.83;100.00;101625.31;4995046;28;20049;-86
2023/06/24 01:23:14;;;;;;;26.15;16.92;;;12.20;99.90;;;17.31;100.00;101628.22;5012578;28;20038;-86
2023/06/24 01:26:14;;;;;;;22.33;15.27;;;12.20;99.90;;;17.33;100.00;101634.31;5004541;28;20035;-85
2023/06/24 01:29:21;;;;;;;24.17;14.52;;;12.20;99.90;;;16.89;100.00;101621.66;5013019;28;20025;-85
2023/06/24 01:32:06;;;;;;;24.83;14.80;;;12.20;99.90;;;16.62;100.00;101641.34;5011455;28;20089;-85
2023/06/24 01:34:59;;;;;;;22.25;14.88;;;12.10;99.90;;;16.61;100.00;101644.31;5024777;28;20514;-85
2023/06/24 01:37:51;;;;;;;24.20;15.13;;;12.10;99.90;;;16.48;100.00;101651.69;5017624;28;20410;-84
2023/06/24 01:40:28;;;;;;;24.85;16.23;;;12.00;99.90;;;16.40;100.00;101657.50;5021828;28;20038;-85
2023/06/24 01:42:58;;;;;;;20.95;15.60;;;12.10;99.90;;;16.32;100.00;101658.69;4994685;28;20046;-85
2023/06/24 01:45:28;;;;;;;22.58;14.77;;;12.10;99.90;;;16.37;100.00;101661.56;5021662;28;20041;-85
2023/06/24 01:48:13;;;;;;;20.33;14.32;;;12.00;99.90;;;16.45;100.00;101654.91;5003815;28;20120;-85
2023/06/24 01:50:55;;;;;;;19.30;14.15;;;12.00;99.90;;;16.49;100.00;101649.75;5009487;28;20041;-86
2023/06/24 01:53:22;;;;;;;22.27;13.65;;;11.90;99.90;;;16.36;100.00;101650.78;5016091;28;20062;-85
2023/06/24 01:55:53;;;;;;;19.90;13.38;;;12.00;99.90;;;16.32;100.00;101646.81;5012673;28;20038;-85
2023/06/24 01:58:22;;;;;;;21.02;14.38;;;12.00;99.90;;;16.16;100.00;101651.84;5006193;28;20144;-85
2023/06/24 02:00:50;;;;;;;21.08;13.82;;;11.90;99.90;;;16.13;100.00;101649.56;5013563;28;20482;-85
2023/06/24 02:03:19;;;;;;;19.10;12.90;;;11.80;99.90;;;15.95;100.00;101662.28;4990937;28;20128;-85
2023/06/24 02:05:48;;;;;;;20.73;13.00;;;11.70;99.90;;;15.85;100.00;101653.66;5007752;28;20043;-85
2023/06/24 02:08:16;;;;;;;17.35;11.82;;;11.60;99.90;;;15.97;100.00;101664.78;5025981;28;20069;-85
2023/06/24 02:10:45;;;;;;;19.92;12.48;;;11.60;99.90;;;15.91;100.00;101661.06;4981187;28;20025;-84
2023/06/24 02:13:13;;;;;;;21.10;12.77;;;11.60;99.90;;;15.92;100.00;101659.13;5020023;28;20424;-85
2023/06/24 02:15:40;;;;;;;22.50;14.20;;;11.60;99.90;;;15.78;100.00;101661.13;5015314;28;20022;-86
2023/06/24 02:18:10;;;;;;;21.67;13.05;;;11.60;99.90;;;15.64;100.00;101657.69;5000133;28;20054;-85
2023/06/24 02:20:38;;;;;;;21.77;13.45;;;11.50;99.90;;;15.61;100.00;101652.63;5003173;28;20034;-85
2023/06/24 02:23:09;;;;;;;21.67;13.52;;;11.50;99.90;;;15.70;100.00;101648.50;5009667;28;20045;-85
2023/06/24 02:25:38;;;;;;;21.45;13.98;;;11.50;99.90;;;15.80;100.00;101657.09;5004251;28;20062;-84
2023/06/24 02:28:06;;;;;;;18.65;12.30;;;11.50;99.90;;;15.66;100.00;101655.53;4975643;28;20089;-85
2023/06/24 02:30:37;;;;;;;21.02;12.68;;;11.40;99.90;;;15.81;100.00;101649.69;4988210;28;20038;-83
2023/06/24 02:33:03;;;;;;;20.20;12.48;;;11.40;99.90;;;15.72;100.00;101651.88;5002339;28;20065;-84
2023/06/24 02:35:29;;;;;;;18.45;12.13;;;11.40;99.90;;;15.66;100.00;101645.41;5007879;28;20103;-84
2023/06/24 02:37:55;;;;;;;23.52;12.98;;;11.30;99.90;;;15.61;100.00;101650.72;5004989;28;20500;-84
2023/06/24 02:40:21;;;;;;;18.90;11.52;;;11.30;99.90;;;15.66;100.00;101645.41;4985391;28;20034;-84
2023/06/24 02:42:46;;;;;;;21.58;12.38;;;11.20;99.90;;;15.54;100.00;101644.44;4982975;28;20072;-84
2023/06/24 02:45:15;;;;;;;20.10;12.48;;;11.20;99.90;;;15.61;100.00;101641.63;5001794;28;20053;-84
2023/06/24 02:47:46;;;;;;;21.92;12.98;;;11.20;99.90;;;15.70;100.00;101644.94;5000885;28;20042;-84
2023/06/24 02:50:14;;;;;;;21.65;12.68;;;11.30;99.90;;;15.67;100.00;101646.22;5011164;28;20431;-84
2023/06/24 02:52:40;;;;;;;25.05;13.00;;;11.30;99.90;;;15.64;100.00;101644.75;4995827;28;20026;-85
2023/06/24 02:55:11;;;;;;;23.70;12.75;;;11.40;99.90;;;15.64;100.00;101647.50;5017787;28;20533;-85
2023/06/24 02:57:38;;;;;;;24.10;12.23;;;11.40;99.90;;;15.63;100.00;101647.75;5012399;28;20076;-80
2023/06/24 03:00:33;;;;;;;20.75;13.00;;;11.40;99.90;;;15.76;100.00;101658.59;5004791;28;20039;-79
2023/06/24 03:03:08;;;;;;;23.13;13.13;;;11.30;99.90;;;15.79;100.00;101652.66;4997427;28;20382;-79
2023/06/24 03:05:38;;;;;;;18.05;11.98;;;11.40;99.90;;;15.77;100.00;101659.47;4979590;28;20036;-80
2023/06/24 03:08:05;;;;;;;20.38;12.73;;;11.30;99.90;;;15.78;100.00;101662.00;4998468;28;20073;-80
2023/06/24 03:10:31;;;;;;;17.58;11.45;;;11.30;99.90;;;15.81;100.00;101658.78;4981758;28;20041;-80
2023/06/24 03:12:57;;;;;;;19.92;12.32;;;11.20;99.90;;;15.72;100.00;101662.06;5002018;28;20033;-80
2023/06/24 03:15:31;;;;;;;16.58;10.90;;;11.10;99.90;;;15.71;100.00;101665.88;4978021;28;20064;-79
2023/06/24 03:17:57;;;;;;;16.73;10.48;;;11.10;99.90;;;15.67;100.00;101660.81;5011895;28;20709;-80
2023/06/24 03:20:23;;;;;;;20.20;12.00;;;11.10;99.90;;;15.71;100.00;101668.63;4992236;28;20038;-80
2023/06/24 03:22:49;;;;;;;20.85;12.40;;;11.20;99.90;;;15.77;100.00;101670.47;5020994;28;20042;-80
2023/06/24 03:25:16;;;;;;;22.55;13.48;;;11.30;99.90;;;15.68;100.00;101673.50;5020139;28;20045;-80
2023/06/24 03:27:42;;;;;;;20.88;12.77;;;11.30;99.90;;;15.82;100.00;101673.38;5011029;28;20046;-80
2023/06/24 03:30:14;;;;;;;19.95;11.45;;;11.40;99.90;;;15.84;100.00;101671.22;5018055;28;20738;-80
2023/06/24 03:32:41;;;;;;;18.98;11.68;;;11.40;99.90;;;15.81;100.00;101675.28;5019947;28;20042;-80
2023/06/24 03:35:07;;;;;;;22.52;13.88;;;11.40;99.90;;;15.90;100.00;101675.84;4996635;28;20033;-80
2023/06/24 03:37:33;;;;;;;23.75;13.38;;;11.40;99.90;;;16.12;100.00;101671.81;4998981;28;20398;-80
2023/06/24 03:39:59;;;;;;;22.40;12.32;;;11.50;99.90;;;16.26;100.00;101673.34;5011573;28;20030;-80
2023/06/24 03:42:26;;;;;;;24.25;13.65;;;11.60;99.90;;;15.94;100.00;101679.84;5005757;28;20034;-80
2023/06/24 03:44:51;;;;;;;21.77;13.02;;;11.60;99.90;;;16.32;100.00;101680.69;5007694;28;20045;-80
2023/06/24 03:47:17;;;;;;;20.75;13.18;;;11.70;99.90;;;16.44;100.00;101675.22;5022215;28;20429;-80
2023/06/24 03:49:43;;;;;;;20.73;12.55;;;11.80;99.90;;;16.53;100.00;101678.50;5012356;28;20036;-80
2023/06/24 03:52:10;;;;;;;20.92;12.73;;;11.90;99.90;;;16.47;100.00;101680.31;4982527;28;20096;-80
2023/06/24 03:54:36;;;;;;;22.05;13.30;;;11.90;99.90;;;16.60;100.00;101684.78;5009970;28;20108;-80
2023/06/24 03:57:02;;;;;;;24.42;13.95;;;11.90;99.90;;;16.61;100.00;101680.13;5021543;28;20042;-80
2023/06/24 03:59:28;;;;;;;21.67;14.15;;;11.90;99.90;;;16.61;100.00;101680.13;5007613;28;20030;-80
2023/06/24 04:01:55;;;;;;;22.52;13.35;;;12.00;99.90;;;16.74;100.00;101679.09;4985544;28;20496;-80
2023/06/24 04:04:22;;;;;;;19.48;12.65;;;12.00;99.90;;;16.82;100.00;101676.00;5008573;28;20046;-79
2023/06/24 04:06:47;;;;;;;25.13;13.57;;;12.00;99.90;;;16.82;100.00;101676.00;4984996;28;20034;-80
2023/06/24 04:09:14;;;;;;;26.08;13.55;;;12.10;99.90;;;16.94;100.00;101676.03;4999773;28;20076;-79
2023/06/24 04:11:39;;;;;;;25.98;14.95;;;12.20;99.90;;;16.98;100.00;101674.56;5008437;28;20034;-80
2023/06/24 04:14:06;;;;;;;27.00;15.05;;;12.30;99.90;;;17.07;100.00;101670.38;5003386;28;20477;-80
2023/06/24 04:16:33;;;;;;;27.85;15.60;;;12.40;99.90;;;17.57;100.00;101670.19;5011794;28;20044;-80
2023/06/24 04:19:01;;;;;;;24.35;14.98;;;12.50;99.90;;;17.59;100.00;101679.06;5023973;28;20398;-80
2023/06/24 04:21:27;;;;;;;26.15;14.75;;;12.60;99.90;;;17.55;100.00;101684.25;5006229;28;20037;-80
2023/06/24 04:23:53;;;;;;;23.50;15.02;;;12.70;99.90;;;17.34;100.00;101660.81;5010350;28;20045;-80
2023/06/24 04:26:19;;;;;;;30.60;14.90;;;12.80;99.90;;;17.65;100.00;101684.47;4998967;28;20390;-81
2023/06/24 04:28:45;;;;;;;23.55;14.85;;;12.90;99.90;;;17.80;100.00;101688.69;4999857;28;20037;-80
2023/06/24 04:31:11;;;;;;;25.48;15.18;;;13.00;99.90;;;17.86;100.00;101690.50;5010341;28;20077;-80
2023/06/24 04:33:38;;;;;;;27.00;14.73;;;13.10;99.90;;;18.02;100.00;101686.19;5003734;28;20482;-82
2023/06/24 04:36:04;;;;;;;22.58;14.15;;;13.20;99.90;;;18.11;100.00;101692.19;5007935;28;20038;-79
2023/06/24 04:38:30;;;;;;;27.17;14.50;;;13.20;99.90;;;18.15;100.00;101687.84;4995268;28;20045;-78
2023/06/24 04:40:59;;;;;;;21.55;14.05;;;13.30;99.90;;;18.00;100.00;101698.50;5010954;28;20030;-79
2023/06/24 04:43:28;;;;;;;20.10;13.82;;;13.40;99.90;;;18.35;100.00;101697.66;5001316;28;20038;-79
2023/06/24 04:45:55;;;;;;;21.10;13.65;;;13.50;99.90;;;18.44;100.00;101700.88;5001369;28;20038;-78
2023/06/24 04:48:24;;;;;;;24.63;13.65;;;13.50;99.90;;;18.58;100.00;101691.22;5009812;28;20045;-77
2023/06/24 04:50:50;;;;;;;21.48;13.65;;;13.60;99.90;;;18.79;100.00;101691.63;5011667;28;20061;-81
2023/06/24 04:53:16;;;;;;;19.13;12.82;;;13.70;99.90;;;18.66;100.00;101685.28;5003623;28;20073;-77
2023/06/24 04:55:43;;;;;;;20.08;12.90;;;13.80;99.90;;;18.59;100.00;101697.59;4997353;28;20378;-77
2023/06/24 04:58:08;;;;;;;18.67;12.65;;;13.90;99.90;;;18.57;100.00;101699.78;4997473;28;20038;-77
2023/06/24 05:00:34;;;;;;;17.75;12.80;;;14.00;99.90;;;18.45;100.00;101695.09;5002703;28;20044;-76
2023/06/24 05:03:00;;;;;;;18.75;12.80;;;14.00;99.90;;;18.68;100.00;101698.88;4997735;28;20134;-83
2023/06/24 05:05:26;;;;;;;22.35;13.05;;;14.10;99.90;;;18.78;100.00;101695.47;5006036;28;20413;-78
2023/06/24 05:07:52;;;;;;;17.75;11.63;;;14.20;99.90;;;18.90;100.00;101700.97;4999809;28;20049;-78
2023/06/24 05:10:18;;;;;;;18.00;12.02;;;14.30;99.90;;;19.03;100.00;101702.63;4998965;28;20038;-78
2023/06/24 05:12:44;;;;;;;17.95;12.77;;;14.40;99.90;;;19.33;100.00;101707.00;5007004;28;20041;-79
2023/06/24 05:15:10;;;;;;;18.60;11.68;;;14.50;99.90;;;19.32;100.00;101703.38;4994781;28;20041;-79
2023/06/24 05:17:36;;;;;;;16.55;12.20;;;14.70;99.90;;;19.32;100.00;101711.69;4991174;28;20440;-79
2023/06/24 05:20:02;;;;;;;14.95;11.80;;;14.70;99.90;;;19.33;100.00;101716.13;4968402;28;20038;-79
2023/06/24 05:22:28;;;;;;;16.05;11.63;;;14.90;99.90;;;19.11;100.00;101716.88;4977244;28;20054;-80
2023/06/24 05:24:54;;;;;;;16.85;11.27;;;15.00;99.90;;;19.57;100.00;101715.16;4976119;28;20038;-79
2023/06/24 05:27:20;;;;;;;15.45;11.10;;;15.10;99.90;;;19.98;100.00;101719.41;4983208;28;20036;-80
2023/06/24 05:29:47;;;;;;;14.63;10.23;;;15.30;99.90;;;20.68;100.00;101715.31;4974890;28;20052;-82
2023/06/24 05:32:13;;;;;;;14.33;10.53;;;15.40;99.90;;;20.62;100.00;101717.22;4966755;28;20501;-79
2023/06/24 05:34:39;;;;;;;15.48;10.52;;;15.60;99.90;;;20.40;100.00;101711.66;4985260;28;20140;-79
2023/06/24 05:37:04;;;;;;;15.57;10.15;;;15.60;99.90;;;20.25;100.00;101707.59;4971752;28;20034;-80
2023/06/24 05:39:31;;;;;;;13.93;10.18;;;15.80;99.90;;;20.26;100.00;101713.97;4974109;28;20483;-81
2023/06/24 05:41:57;;;;;;;14.90;9.82;;;15.90;99.90;;;20.52;100.00;101711.53;4990020;28;20470;-81
2023/06/24 05:44:23;;;;;;;12.93;9.95;;;16.00;99.90;;;21.06;100.00;101715.47;4985008;28;20045;-80
2023/06/24 05:46:49;;;;;;;15.23;10.02;;;16.20;99.90;;;21.15;100.00;101711.16;4972793;28;20042;-81
2023/06/24 05:49:15;;;;;;;14.95;9.90;;;16.40;99.90;;;21.49;100.00;101718.38;4981671;28;20113;-79
2023/06/24 05:51:41;;;;;;;12.80;9.10;;;16.60;99.90;;;21.27;100.00;101722.91;4992120;28;20046;-80
2023/06/24 05:54:07;;;;;;;16.45;9.98;;;16.70;99.90;;;21.52;100.00;101723.41;4986231;28;20041;-79
2023/06/24 05:56:33;;;;;;;15.20;10.38;;;16.90;99.90;;;21.56;100.00;101721.78;4987049;28;20078;-79
2023/06/24 05:59:00;;;;;;;16.23;10.45;;;17.10;99.90;;;21.68;100.00;101716.06;4986516;28;20068;-79
2023/06/24 06:01:25;;;;;;;17.35;9.80;;;17.10;99.90;;;21.84;100.00;101711.44;4980016;28;20050;-79
2023/06/24 06:03:51;;;;;;;18.90;10.43;;;17.30;99.90;;;21.88;100.00;101708.97;4978584;28;20496;-79
2023/06/24 06:06:17;;;;;;;16.48;10.48;;;17.40;99.90;;;21.81;100.00;101712.81;4980044;28;20512;-79
2023/06/24 06:08:43;;;;;;;14.18;9.82;;;17.50;99.90;;;21.98;100.00;101709.84;4978622;28;20056;-80
2023/06/24 06:11:08;;;;;;;15.70;9.73;;;17.60;99.90;;;22.26;100.00;101705.00;4976412;28;20043;-78
2023/06/24 06:13:34;;;;;;;15.07;10.57;;;17.70;99.90;;;22.29;100.00;101714.75;4979993;28;20049;-78
2023/06/24 06:16:00;;;;;;;15.55;10.63;;;17.90;99.90;;;21.98;100.00;101714.59;4986037;28;20038;-79
2023/06/24 06:18:26;;;;;;;16.60;10.55;;;18.00;99.90;;;22.24;100.00;101706.41;4971653;28;20055;-77
2023/06/24 06:20:51;;;;;;;15.25;10.25;;;18.10;99.90;;;22.47;100.00;101699.56;4975109;28;20042;-78
2023/06/24 06:23:17;;;;;;;15.18;9.73;;;18.20;99.90;;;22.37;100.00;101694.78;4982084;28;20038;-78
2023/06/24 06:25:43;;;;;;;13.05;9.85;;;18.20;99.90;;;22.48;100.00;101701.25;4987527;28;20046;-77
2023/06/24 06:28:10;;;;;;;12.35;8.43;;;18.20;99.90;;;22.73;100.00;101690.50;4964094;28;20043;-77
2023/06/24 06:30:36;;;;;;;14.70;9.43;;;18.20;99.90;;;23.56;100.00;101695.03;4962785;28;20308;-78
2023/06/24 06:33:02;;;;;;;12.60;9.25;;;18.40;99.90;;;23.58;94.59;101688.34;4991777;28;20386;-79
2023/06/24 06:35:28;;;;;;;12.75;9.02;;;;;;;23.65;94.17;101695.31;4985114;28;20398;-78
2023/06/24 06:37:54;;;;;;;14.55;9.40;;;18.60;99.90;;;23.58;100.00;101707.84;4966686;28;20553;-79
2023/06/24 06:40:23;;;;;;;14.13;8.82;;;18.60;99.90;;;23.55;96.29;101707.28;4981470;28;20038;-78
2023/06/24 06:42:50;;;;;;;11.82;8.75;;;18.70;99.90;;;23.83;96.09;101713.38;4988036;28;20054;-78
2023/06/24 06:45:16;;;;;;;14.07;8.35;;;18.70;99.90;;;23.38;97.28;101713.16;4972812;28;20034;-78
2023/06/24 06:47:41;;;;;;;14.85;9.05;;;18.70;99.90;;;23.65;100.00;101716.75;4985791;28;20097;-77
2023/06/24 06:50:07;;;;;;;11.88;7.95;;;18.70;99.90;;;24.09;96.26;101706.94;4977454;28;20031;-79
2023/06/24 06:52:34;;;;;;;11.27;8.15;;;18.70;99.90;;;24.12;91.25;101686.84;4985814;28;20038;-77
2023/06/24 06:55:00;;;;;;;12.35;8.27;;;18.80;99.90;;;24.20;94.40;101703.00;4993207;28;20371;-77
2023/06/24 06:57:26;;;;;;;10.95;8.20;;;18.90;99.90;;;23.60;93.32;101697.25;4981793;28;20414;-78
2023/06/24 06:59:52;;;;;;;11.32;8.02;;;19.00;99.90;;;23.81;96.42;101706.41;4982962;28;20045;-78
2023/06/24 07:02:18;;;;;;;14.55;8.18;;;19.00;99.90;;;24.02;91.46;101692.47;4969445;28;20034;-77
2023/06/24 07:04:45;;;;;;;9.30;7.63;;;19.10;99.90;;;24.19;90.72;101701.34;5000450;28;20371;-77
2023/06/24 07:07:11;;;;;;;9.68;6.88;;;19.20;99.90;;;23.95;88.91;101701.94;4995218;28;20114;-77
2023/06/24 07:09:37;;;;;;;9.05;6.80;;;19.30;99.90;;;24.04;91.38;101701.38;4995287;28;20110;-78
2023/06/24 07:12:03;;;;;;;9.95;6.63;;;19.30;99.90;;;24.40;89.71;101701.25;5003157;28;20049;-78
2023/06/24 07:14:29;;;;;;;10.93;6.95;;;19.40;99.90;;;24.49;86.89;101704.28;4994945;28;20042;-78
2023/06/24 07:16:55;;;;;;;10.23;5.90;;;;;;;24.65;84.58;101699.44;4995580;28;20053;-78
2023/06/24 07:19:21;;;;;;;11.27;6.10;;;19.50;99.90;;;24.96;81.75;101691.78;5017117;28;20042;-78
2023/06/24 07:21:47;;;;;;;10.10;5.93;;;19.70;99.90;;;24.76;77.80;101689.09;5014625;28;20128;-79
2023/06/24 07:24:12;;;;;;;10.80;6.68;;;19.80;99.90;;;24.95;77.83;101689.28;4982783;28;20452;-78
2023/06/24 07:26:38;;;;;;;7.40;6.00;;;19.80;99.90;;;25.15;77.66;101696.66;4997606;28;20486;-78
2023/06/24 07:29:07;;;;;;;10.05;6.25;;;20.00;99.90;;;24.73;79.91;101693.28;5011492;28;20050;-78
2023/06/24 07:31:34;;;;;;;10.90;6.20;;;20.00;99.90;;;25.06;81.52;101701.19;4991392;28;20029;-77
2023/06/24 07:33:59;;;;;;;8.38;5.80;;;20.20;99.90;;;25.01;77.22;101699.28;4990965;28;20034;-78
2023/06/24 07:36:25;;;;;;;9.40;5.70;;;20.20;99.90;;;25.43;74.73;101709.00;5014437;28;20060;-78
2023/06/24 07:38:51;;;;;;;9.35;5.43;;;20.20;99.90;;;24.81;77.93;101712.25;5006204;28;20046;-78
2023/06/24 07:41:16;;;;;;;7.55;5.30;;;20.30;99.90;;;24.78;74.75;101710.03;4994576;28;20093;-78
2023/06/24 07:43:42;;;;;;;9.95;5.82;;;20.30;99.90;;;24.82;75.09;101715.88;4998782;28;20746;-77
2023/06/24 07:46:08;;;;;;;8.82;5.70;;;20.50;99.90;;;25.01;73.99;101718.81;5007878;28;20036;-78
2023/06/24 07:48:34;;;;;;;8.38;5.38;;;20.50;99.90;;;24.74;77.92;101710.84;4973584;28;20034;-81
2023/06/24 07:50:59;;;;;;;8.48;5.63;;;20.60;99.90;;;24.53;79.89;101719.31;4991863;28;20046;-82
2023/06/24 07:53:27;;;;;;;7.43;5.07;;;;;;;24.63;70.65;101696.13;5009293;28;20042;-81
2023/06/24 07:55:53;;;;;;;9.02;5.32;;;20.80;99.90;;;24.46;70.94;101710.44;5002394;28;20494;-80
2023/06/24 07:58:21;;;;;;;6.70;4.75;;;20.70;99.90;;;24.98;70.52;101697.91;5001192;28;20088;-82
2023/06/24 08:00:47;;;;;;;8.20;4.70;;;;;;;25.02;66.73;101702.88;4994999;28;20047;-83
2023/06/24 08:03:14;;;;;;;7.50;4.97;;;20.80;99.90;;;24.26;66.74;101710.25;4996761;28;20418;-83
2023/06/24 08:05:39;;;;;;;7.25;4.30;;;20.90;99.90;;;25.38;61.58;101691.47;5017138;28;20048;-84
2023/06/24 08:08:06;;;;;;;8.70;4.60;;;21.00;99.90;;;25.28;61.33;101693.19;5012939;28;20046;-80
2023/06/24 08:10:32;;;;;;;7.30;4.47;;;21.20;99.90;;;25.65;63.77;101712.47;5000867;28;20073;-82
2023/06/24 08:12:58;;;;;;;6.80;4.55;;;21.40;99.90;;;25.70;59.47;101702.06;5001549;28;20146;-82
2023/06/24 08:15:24;;;;;;;7.25;4.88;;;21.50;99.90;;;25.64;57.25;101692.06;5006241;28;20476;-80
2023/06/24 08:17:53;;;;;;;8.32;5.13;;;21.60;99.90;;;25.32;59.52;101710.22;5003566;28;20072;-76
2023/06/24 08:20:23;;;;;;;9.73;4.40;;;21.60;99.90;;;25.75;58.38;101698.41;5007388;28;20045;-80
2023/06/24 08:22:50;;;;;;;5.97;4.25;;;;;;;26.26;62.17;101699.84;4994420;28;20046;-78
2023/06/24 08:25:16;;;;;;;9.00;4.60;;;;;;;26.31;58.25;101689.72;5006894;28;20462;-77
2023/06/24 08:27:46;;;;;;;7.75;4.43;;;;;;;26.48;55.50;101687.22;4998669;28;20045;-77
2023/06/24 08:30:14;;;;;;;7.47;4.45;;;;;;;26.72;53.85;101675.16;4991187;28;20053;-79
2023/06/24 08:32:40;;;;;;;;;;;;;;;26.87;53.25;101676.09;4997197;28;20097;-78
2023/06/24 08:35:07;;;;;;;8.35;4.03;;;;;;;26.64;55.37;101684.22;5010129;28;19917;-79
2023/06/24 08:37:33;;;;;;;9.55;4.60;;;;;;;27.03;54.96;101685.91;5003147;28;20108;-83
2023/06/24 08:39:59;;;;;;;7.57;4.40;;;;;;;27.34;53.90;101688.22;4993582;28;20045;-80
2023/06/24 08:42:25;;;;;;;8.85;4.47;;;;;;;27.35;55.15;101689.88;4998113;28;20037;-79
2023/06/24 08:44:52;;;;;;;8.13;4.47;;;;;;;27.60;54.10;101692.56;5005915;28;20126;-79
2023/06/24 08:47:18;;;;;;;9.43;4.78;;;;;;;27.52;52.45;101696.88;4999679;28;20041;-77
2023/06/24 08:49:51;;;;;;;7.67;4.80;;;;;;;27.78;52.88;101696.41;4994969;28;20106;-77
2023/06/24 08:52:17;;;;;;;8.27;4.50;;;;;;;28.21;50.05;101681.31;4994521;28;20424;-76
2023/06/24 08:54:51;;;;;;;6.88;4.50;;;;;;;28.62;50.42;101688.84;4994774;28;20038;-77
2023/06/24 08:57:18;;;;;;;6.47;4.57;;;;;;;28.34;50.90;101688.03;4999190;28;20034;-77
2023/06/24 08:59:45;;;;;;;6.40;3.77;;;;;;;27.59;48.81;101680.53;4994527;28;20026;-78
2023/06/24 09:02:13;;;;;;;6.10;4.10;;;;;;;27.89;47.75;101678.28;5002624;28;20029;-77
2023/06/24 09:04:40;;;;;;;5.28;4.03;;;;;;;28.06;45.66;101668.41;5002709;28;20435;-79
2023/06/24 09:07:06;;;;;;;7.28;4.30;;;;;;;28.21;45.51;101659.72;4985057;28;20030;-78
2023/06/24 09:09:32;;;;;;;6.13;4.28;;;;;;;28.62;47.81;101682.38;5001943;28;20367;-79
2023/06/24 09:12:01;;;;;;;5.53;4.30;;;;;;;27.92;46.55;101679.63;4999878;28;20073;-79
2023/06/24 09:14:29;;;;;;;5.90;4.05;;;;;;;27.12;47.39;101675.69;4997798;28;20128;-78
2023/06/24 09:16:58;;;;;;;7.50;4.22;;;;;;;27.14;48.28;101672.56;4993872;28;20126;-77
2023/06/24 09:19:28;;;;;;;5.72;4.13;;;;;;;28.18;46.68;101657.53;5003488;28;20058;-78
2023/06/24 09:22:04;;;;;;;5.93;4.25;;;;;;;28.07;44.30;101644.81;4985496;28;20042;-78
2023/06/24 09:24:32;;;;;;;4.70;3.38;;;;;;;28.71;44.01;101636.41;4999032;28;20034;-79
2023/06/24 09:26:58;;;;;;;6.35;3.95;;;;;;;27.69;45.01;101657.91;5000950;28;20391;-77
2023/06/24 09:29:31;;;;;;;7.28;4.10;;;;;;;28.55;46.23;101666.00;4997798;28;20065;-79
2023/06/24 09:31:59;;;;;;;5.20;3.55;;;;;;;27.43;45.74;101651.91;4994099;28;20041;-77
2023/06/24 09:34:25;;;;;;;8.23;3.90;;;;;;;28.66;43.83;101624.50;5000172;28;20034;-78
2023/06/24 09:36:53;;;;;;;5.30;3.50;;;;;;;29.49;41.68;101614.03;4999566;28;20072;-79
2023/06/24 09:39:29;;;;;;;5.63;3.45;;;;;;;29.13;40.87;101608.16;5009714;28;20030;-78
2023/06/24 09:41:56;;;;;;;5.43;3.50;;;;;;;29.62;40.80;101607.44;4999790;28;20050;-80
2023/06/24 09:44:23;;;;;;;6.97;3.97;;;;;;;28.71;43.00;101625.19;4999720;28;20375;-79
2023/06/24 09:46:49;;;;;;;4.82;3.50;;;;;;;29.83;40.70;101613.31;4997247;28;20143;-79
2023/06/24 09:49:15;;;;;;;5.43;3.53;;;;;;;28.49;41.22;101609.16;4998802;28;20071;-80
2023/06/24 09:51:48;;;;;;;6.05;3.22;;;;;;;28.43;43.72;101635.69;4994429;28;20474;-82
2023/06/24 09:54:15;;;;;;;6.78;3.42;;;;;;;28.99;42.85;101627.09;5002556;28;20125;-78
2023/06/24 09:56:48;;;;;;;4.25;3.20;;;;;;;28.87;42.59;101626.81;4998805;28;20041;-81
2023/06/24 09:59:17;;;;;;;9.52;4.20;;;;;;;30.08;40.78;101612.94;4982414;28;20124;-83
2023/06/24 10:01:46;;;;;;;6.05;3.60;;;;;;;30.61;38.19;101579.22;5005493;28;20041;-83
2023/06/24 10:04:17;;;;;;;5.93;3.50;;;;;;;30.42;38.96;101594.44;5002541;28;20037;-80
2023/06/24 10:06:43;;;;;;;4.30;3.40;;;;;;;30.28;38.44;101584.16;5002136;28;20054;-82
2023/06/24 10:09:10;;;;;;;5.90;3.47;;;;;;;30.40;39.89;101608.00;4990688;28;20116;-79
2023/06/24 10:11:36;;;;;;;5.53;3.60;;;;;;;30.35;38.88;101594.09;5002023;28;20046;-78
2023/06/24 10:14:02;;;;;;;5.90;3.75;;;;;;;30.38;38.25;101594.28;5002004;28;20034;-81
2023/06/24 10:16:28;;;;;;;4.85;3.20;;;;;;;31.11;38.76;101606.81;5000790;28;20042;-84
2023/06/24 10:19:04;;;;;;;6.38;3.35;;;;;;;30.79;37.52;101578.06;4996013;28;20046;-83
2023/06/24 10:21:53;;;;;;;4.88;3.30;;;;;;;31.09;39.79;101617.59;5002404;28;20053;-81